Time;durP1;ratioP1;P1;durP2;ratioP2;P2;SDS_P1;SDS_P2;PMS_P1;PMS_P2;Temp;Humidity;BMP_temperature;BMP_pressure;BME280_temperature;BME280_humidity;BME280_pressure;Samples;Min_cycle;Max_cycle;Signal;HPM_P1;HPM_P2
2023/06/27 00:03:54;;;;;;;;;;;24.80;45.60;;;;;;10332246;28;93392;-66
2023/06/27 00:08:56;;;;;;;;;;;24.80;45.70;;;;;;10332798;28;93728;-65
2023/06/27 00:13:58;;;;;;;;;;;24.80;45.70;;;;;;10332503;28;93932;-66
2023/06/27 00:19:02;;;;;;;;;;;24.80;45.70;;;;;;10332465;28;93509;-65
2023/06/27 00:24:04;;;;;;;;;;;24.80;45.80;;;;;;10329787;28;96120;-66
2023/06/27 00:29:05;;;;;;;;;;;24.80;45.90;;;;;;10330723;28;93677;-66
2023/06/27 00:34:07;;;;;;;;;;;24.80;45.80;;;;;;10330742;28;93715;-65
2023/06/27 00:39:09;;;;;;;;;;;24.80;45.80;;;;;;10331175;28;92963;-65
2023/06/27 00:44:11;;;;;;;;;;;24.80;45.80;;;;;;10331764;28;94361;-66
2023/06/27 00:49:12;;;;;;;;;;;24.80;45.80;;;;;;10331790;28;94890;-66
2023/06/27 00:54:16;;;;;;;;;;;24.80;45.80;;;;;;10330463;28;93638;-67
2023/06/27 00:59:18;;;;;;;;;;;24.80;45.90;;;;;;10332959;28;93274;-65
2023/06/27 01:04:20;;;;;;;;;;;24.80;45.90;;;;;;10330360;28;94644;-65
2023/06/27 01:09:28;;;;;;;;;;;24.80;45.90;;;;;;10331224;28;94432;-67
2023/06/27 01:14:31;;;;;;;;;;;24.80;45.90;;;;;;10328709;28;97010;-65
2023/06/27 01:19:32;;;;;;;;;;;24.80;45.90;;;;;;10313126;28;94721;-65
2023/06/27 01:24:36;;;;;;;;;;;24.80;46.00;;;;;;10330408;28;93666;-65
2023/06/27 01:29:41;;;;;;;;;;;24.80;46.00;;;;;;10330086;28;93974;-66
2023/06/27 01:35:01;;;;;;;;;;;24.80;45.90;;;;;;10330032;28;94498;-66
2023/06/27 01:40:07;;;;;;;;;;;24.80;46.00;;;;;;10329958;28;93925;-65
2023/06/27 01:45:12;;;;;;;;;;;24.80;46.00;;;;;;10330449;28;94746;-66
2023/06/27 01:50:14;;;;;;;;;;;24.80;46.10;;;;;;10329484;28;93915;-66
2023/06/27 01:55:16;;;;;;;;;;;24.80;46.10;;;;;;10310209;28;93645;-66
2023/06/27 02:00:18;;;;;;;;;;;24.80;46.30;;;;;;10329509;28;93874;-65
2023/06/27 02:05:20;;;;;;;;;;;24.80;46.40;;;;;;10292113;28;96859;-65
2023/06/27 02:10:22;;;;;;;;;;;24.70;46.30;;;;;;10329022;28;94432;-65
2023/06/27 02:15:23;;;;;;;;;;;24.70;46.40;;;;;;10328522;28;93682;-66
2023/06/27 02:20:26;;;;;;;;;;;24.70;46.40;;;;;;10328219;28;94645;-66
2023/06/27 02:25:27;;;;;;;;;;;24.70;46.50;;;;;;10329109;28;94681;-66
2023/06/27 02:30:29;;;;;;;;;;;24.70;46.60;;;;;;10327993;28;94115;-62
2023/06/27 02:35:31;;;;;;;;;;;24.70;46.60;;;;;;10327524;28;94090;-66
2023/06/27 02:40:33;;;;;;;;;;;24.60;46.70;;;;;;10328291;28;92764;-67
2023/06/27 02:45:36;;;;;;;;;;;24.60;46.70;;;;;;10327779;28;93076;-66
2023/06/27 02:50:37;;;;;;;;;;;24.60;46.80;;;;;;10329307;28;94598;-66
2023/06/27 02:55:39;;;;;;;;;;;24.60;46.90;;;;;;10332579;28;97136;-65
2023/06/27 03:00:41;;;;;;;;;;;24.60;46.90;;;;;;10334305;28;94121;-66
2023/06/27 03:05:43;;;;;;;;;;;24.60;47.00;;;;;;10335139;28;94478;-66
2023/06/27 03:10:44;;;;;;;;;;;24.60;47.20;;;;;;10334926;28;94987;-67
2023/06/27 03:15:46;;;;;;;;;;;24.60;47.20;;;;;;10333659;28;94626;-65
2023/06/27 03:20:48;;;;;;;;;;;24.50;48.30;;;;;;10334772;28;93272;-66
2023/06/27 03:25:49;;;;;;;;;;;24.60;47.30;;;;;;10316066;28;94669;-65
2023/06/27 03:30:51;;;;;;;;;;;24.60;47.40;;;;;;10316406;28;93762;-66
2023/06/27 03:35:53;;;;;;;;;;;24.50;47.40;;;;;;10334631;28;93280;-66
2023/06/27 03:40:55;;;;;;;;;;;24.50;47.40;;;;;;10333323;28;93674;-65
2023/06/27 03:45:56;;;;;;;;;;;24.50;47.30;;;;;;10329844;28;95901;-66
2023/06/27 03:50:58;;;;;;;;;;;24.60;47.40;;;;;;10315146;28;94136;-65
2023/06/27 03:56:00;;;;;;;;;;;24.50;47.40;;;;;;10331821;28;94054;-66
2023/06/27 04:01:03;;;;;;;;;;;24.60;47.50;;;;;;10332599;28;94519;-65
2023/06/27 04:06:04;;;;;;;;;;;24.60;47.50;;;;;;10314464;28;93560;-65
2023/06/27 04:11:06;;;;;;;;;;;24.50;47.60;;;;;;10333319;28;92628;-65
2023/06/27 04:16:08;;;;;;;;;;;24.60;47.60;;;;;;10333251;28;93818;-65
2023/06/27 04:21:09;;;;;;;;;;;24.60;47.60;;;;;;10331755;28;93446;-65
2023/06/27 04:26:15;;;;;;;;;;;24.60;47.60;;;;;;10331837;28;94465;-66
2023/06/27 04:31:17;;;;;;;;;;;24.60;47.60;;;;;;10331652;28;93468;-65
2023/06/27 04:36:20;;;;;;;;;;;24.60;47.60;;;;;;10330148;28;96987;-66
2023/06/27 04:41:22;;;;;;;;;;;24.60;47.60;;;;;;10330418;28;93467;-66
2023/06/27 04:51:39;;;;;;;;;;;24.60;47.60;;;;;;10326861;28;95476;-61
2023/06/27 04:56:40;;;;;;;;;;;24.60;47.80;;;;;;10330026;28;92702;-65
2023/06/27 05:01:42;;;;;;;;;;;24.60;47.90;;;;;;10331467;28;94628;-65
2023/06/27 05:06:44;;;;;;;;;;;24.60;47.80;;;;;;10331052;28;93071;-65
2023/06/27 05:11:45;;;;;;;;;;;24.50;48.80;;;;;;10331179;28;93731;-66
2023/06/27 05:16:47;;;;;;;;;;;24.60;48.00;;;;;;10330578;28;93507;-65
2023/06/27 05:21:49;;;;;;;;;;;24.60;48.20;;;;;;10330068;28;93825;-66
2023/06/27 05:26:50;;;;;;;;;;;24.50;48.70;;;;;;10325892;28;95832;-66
2023/06/27 05:31:52;;;;;;;;;;;24.50;49.00;;;;;;10329477;28;94495;-65
2023/06/27 05:36:54;;;;;;;;;;;24.40;49.10;;;;;;10329278;28;94317;-68
2023/06/27 05:41:55;;;;;;;;;;;24.20;49.60;;;;;;10327888;28;93614;-65
2023/06/27 05:46:57;;;;;;;;;;;24.20;49.60;;;;;;10327854;28;94925;-66
2023/06/27 05:51:59;;;;;;;;;;;24.10;49.50;;;;;;10328418;28;93445;-66
2023/06/27 05:57:00;;;;;;;;;;;24.00;51.20;;;;;;10327753;28;96271;-61
2023/06/27 06:02:03;;;;;;;;;;;24.10;50.90;;;;;;10328839;28;94111;-60
2023/06/27 06:07:05;;;;;;;;;;;24.20;50.40;;;;;;10327711;28;94342;-60
2023/06/27 06:12:07;;;;;;;;;;;24.20;51.00;;;;;;10327781;28;95613;-61
2023/06/27 06:17:09;;;;;;;;;;;24.20;50.40;;;;;;10325585;28;97070;-60
2023/06/27 06:22:10;;;;;;;;;;;24.20;50.50;;;;;;10327268;28;93651;-60
2023/06/27 06:27:12;;;;;;;;;;;24.20;51.40;;;;;;10327321;28;93279;-61
2023/06/27 06:32:14;;;;;;;;;;;24.30;51.20;;;;;;10356045;28;93420;-66
2023/06/27 06:37:15;;;;;;;;;;;24.30;50.90;;;;;;10349586;28;94512;-65
2023/06/27 06:42:17;;;;;;;;;;;24.40;50.90;;;;;;10367547;28;94566;-66
2023/06/27 06:47:19;;;;;;;;;;;24.40;50.60;;;;;;10367248;28;93893;-65
2023/06/27 06:52:21;;;;;;;;;;;24.40;50.50;;;;;;10349305;28;92489;-66
2023/06/27 06:57:23;;;;;;;;;;;24.40;50.40;;;;;;10333739;28;94523;-65
2023/06/27 07:02:25;;;;;;;;;;;24.40;50.10;;;;;;10278594;28;93528;-65
2023/06/27 07:07:28;;;;;;;;;;;24.50;49.80;;;;;;10266202;28;96496;-66
2023/06/27 07:12:31;;;;;;;;;;;24.50;49.40;;;;;;10286573;28;95904;-65
2023/06/27 07:17:32;;;;;;;;;;;24.60;49.20;;;;;;10268475;28;93509;-66
2023/06/27 07:22:34;;;;;;;;;;;24.60;51.00;;;;;;10359176;28;96031;-65
2023/06/27 07:27:36;;;;;;;;;;;24.60;50.40;;;;;;10327184;28;92503;-65
2023/06/27 07:32:38;;;;;;;;;;;24.70;50.20;;;;;;10325757;28;94451;-66
2023/06/27 07:37:39;;;;;;;;;;;24.70;50.00;;;;;;10328260;28;93872;-67
2023/06/27 07:42:41;;;;;;;;;;;24.70;49.80;;;;;;10333665;28;93825;-67
2023/06/27 07:47:43;;;;;;;;;;;24.70;49.40;;;;;;10333275;28;93724;-66
2023/06/27 07:52:45;;;;;;;;;;;24.70;49.40;;;;;;10331555;28;93429;-66
2023/06/27 07:57:47;;;;;;;;;;;24.70;49.10;;;;;;10325824;28;96214;-66
2023/06/27 08:02:49;;;;;;;;;;;24.70;49.00;;;;;;10330479;28;93820;-66
2023/06/27 08:07:51;;;;;;;;;;;24.70;48.80;;;;;;10330536;28;94637;-62
2023/06/27 08:12:53;;;;;;;;;;;24.70;48.70;;;;;;10331905;28;94342;-61
2023/06/27 08:17:54;;;;;;;;;;;24.70;48.60;;;;;;10332517;28;94472;-68
2023/06/27 08:22:56;;;;;;;;;;;24.70;48.60;;;;;;10332477;28;93449;-66
2023/06/27 08:27:58;;;;;;;;;;;24.70;48.40;;;;;;10332173;28;95120;-61
2023/06/27 08:33:00;;;;;;;;;;;24.70;48.30;;;;;;10332693;28;92589;-66
2023/06/27 08:38:03;;;;;;;;;;;24.70;48.20;;;;;;10332052;28;93485;-67
2023/06/27 08:43:05;;;;;;;;;;;24.70;48.20;;;;;;10330245;28;94097;-66
2023/06/27 08:48:08;;;;;;;;;;;24.70;48.00;;;;;;10327718;28;96909;-67
2023/06/27 08:53:10;;;;;;;;;;;24.70;47.90;;;;;;10331130;28;94521;-66
2023/06/27 08:58:14;;;;;;;;;;;24.70;47.90;;;;;;10330939;28;94350;-67
2023/06/27 09:03:16;;;;;;;;;;;24.70;47.70;;;;;;10329950;28;94452;-67
2023/06/27 09:08:19;;;;;;;;;;;24.70;47.80;;;;;;10330586;28;93479;-67
2023/06/27 09:13:21;;;;;;;;;;;24.70;47.70;;;;;;10296507;28;94868;-67
2023/06/27 09:18:23;;;;;;;;;;;24.70;47.70;;;;;;10330468;28;94508;-61
2023/06/27 09:23:27;;;;;;;;;;;24.70;47.50;;;;;;10330587;28;92977;-66
2023/06/27 09:28:28;;;;;;;;;;;24.60;47.40;;;;;;10329953;28;94479;-66
2023/06/27 09:33:30;;;;;;;;;;;24.70;47.40;;;;;;10329710;28;93471;-66
2023/06/27 09:38:34;;;;;;;;;;;24.60;47.40;;;;;;10327264;28;116409;-67
2023/06/27 09:43:39;;;;;;;;;;;24.70;47.40;;;;;;10330217;28;93567;-67
2023/06/27 09:48:42;;;;;;;;;;;24.60;47.30;;;;;;10329274;28;94590;-61
2023/06/27 09:53:44;;;;;;;;;;;24.60;47.30;;;;;;10328975;28;94672;-62
2023/06/27 09:58:46;;;;;;;;;;;24.60;47.00;;;;;;10310409;28;93657;-66
2023/06/27 10:03:49;;;;;;;;;;;24.70;47.10;;;;;;10328676;28;94662;-67
2023/06/27 10:08:50;;;;;;;;;;;24.70;47.10;;;;;;10310945;28;93488;-66
2023/06/27 10:13:52;;;;;;;;;;;24.70;46.90;;;;;;10328470;28;92499;-66
2023/06/27 10:18:55;;;;;;;;;;;24.70;47.00;;;;;;10328818;28;94025;-67
2023/06/27 10:23:59;;;;;;;;;;;24.70;47.00;;;;;;10327611;28;94237;-62
2023/06/27 10:29:11;;;;;;;;;;;24.80;46.90;;;;;;10325750;28;96387;-66
2023/06/27 10:34:20;;;;;;;;;;;24.80;46.90;;;;;;10328828;28;94474;-67
2023/06/27 10:39:28;;;;;;;;;;;24.80;46.70;;;;;;10328209;28;94550;-66
2023/06/27 10:44:31;;;;;;;;;;;24.80;46.90;;;;;;10328045;28;94820;-66
2023/06/27 10:49:36;;;;;;;;;;;24.80;46.70;;;;;;10308563;28;94091;-62
2023/06/27 10:54:41;;;;;;;;;;;24.80;46.70;;;;;;10327678;28;93666;-67
2023/06/27 10:59:45;;;;;;;;;;;24.90;46.60;;;;;;10327257;28;93672;-67
2023/06/27 11:04:47;;;;;;;;;;;24.90;46.60;;;;;;10328393;28;92664;-66
2023/06/27 11:09:51;;;;;;;;;;;24.90;46.30;;;;;;10310699;28;94089;-66
2023/06/27 11:14:54;;;;;;;;;;;24.90;46.30;;;;;;10334094;28;93823;-66
2023/06/27 11:19:56;;;;;;;;;;;24.90;46.30;;;;;;10332159;28;96719;-65
2023/06/27 11:24:58;;;;;;;;;;;25.00;46.10;;;;;;10333114;28;92468;-66
2023/06/27 11:30:00;;;;;;;;;;;25.00;46.10;;;;;;10334543;28;94575;-60
2023/06/27 11:35:05;;;;;;;;;;;25.00;46.20;;;;;;10333528;28;93661;-66
2023/06/27 11:40:15;;;;;;;;;;;25.00;46.30;;;;;;10333721;28;94575;-66
2023/06/27 11:45:16;;;;;;;;;;;25.00;46.20;;;;;;10315951;28;94346;-66
2023/06/27 11:50:18;;;;;;;;;;;25.00;46.10;;;;;;10333120;28;93499;-66
2023/06/27 11:55:20;;;;;;;;;;;25.00;46.20;;;;;;10334586;28;92755;-66
2023/06/27 12:00:23;;;;;;;;;;;25.00;46.20;;;;;;10332939;28;94916;-66
2023/06/27 12:05:28;;;;;;;;;;;25.00;46.10;;;;;;10315122;28;94718;-66
2023/06/27 12:10:50;;;;;;;;;;;25.00;46.20;;;;;;10329414;28;97393;-66
2023/06/27 12:15:51;;;;;;;;;;;25.10;46.30;;;;;;10331561;28;93822;-66
2023/06/27 12:20:54;;;;;;;;;;;25.10;46.20;;;;;;10331945;28;94551;-66
2023/06/27 12:25:55;;;;;;;;;;;25.10;46.10;;;;;;10314067;28;95092;-61
2023/06/27 12:30:57;;;;;;;;;;;25.10;46.20;;;;;;10331847;28;92599;-66
2023/06/27 12:35:59;;;;;;;;;;;25.00;46.20;;;;;;10313886;28;94841;-61
2023/06/27 12:41:01;;;;;;;;;;;25.10;46.20;;;;;;10332737;28;94688;-67
2023/06/27 12:46:03;;;;;;;;;;;25.10;46.10;;;;;;10333173;28;93709;-66
2023/06/27 12:51:05;;;;;;;;;;;25.00;46.20;;;;;;10331524;28;94548;-67
2023/06/27 12:56:07;;;;;;;;;;;25.00;46.50;;;;;;10330285;28;93724;-62
2023/06/27 13:01:09;;;;;;;;;;;25.00;46.40;;;;;;10310935;28;96372;-66
2023/06/27 13:06:11;;;;;;;;;;;25.00;46.60;;;;;;10330550;28;93832;-66
2023/06/27 13:11:13;;;;;;;;;;;25.00;46.40;;;;;;10330423;28;92939;-66
2023/06/27 13:16:15;;;;;;;;;;;25.00;46.40;;;;;;10329659;28;93527;-66
2023/06/27 13:21:18;;;;;;;;;;;25.00;46.60;;;;;;10312859;28;94462;-66
2023/06/27 13:26:21;;;;;;;;;;;25.00;46.60;;;;;;10312114;28;96146;-66
2023/06/27 13:31:23;;;;;;;;;;;25.00;46.60;;;;;;10329929;28;93478;-66
2023/06/27 13:36:25;;;;;;;;;;;25.00;46.70;;;;;;10312227;28;92967;-61
2023/06/27 13:41:27;;;;;;;;;;;25.00;46.60;;;;;;10329472;28;92959;-67
2023/06/27 13:46:29;;;;;;;;;;;25.00;46.80;;;;;;10329148;28;93444;-66
2023/06/27 13:51:31;;;;;;;;;;;25.00;46.90;;;;;;10309830;28;95340;-65
2023/06/27 13:56:33;;;;;;;;;;;25.00;46.80;;;;;;10310865;28;93860;-66
2023/06/27 14:01:38;;;;;;;;;;;24.90;46.80;;;;;;10329696;28;94888;-66
2023/06/27 14:06:41;;;;;;;;;;;24.90;47.00;;;;;;10330290;28;94680;-66
2023/06/27 14:11:42;;;;;;;;;;;25.00;46.90;;;;;;10311045;28;93632;-66
2023/06/27 14:16:44;;;;;;;;;;;25.00;47.00;;;;;;10330205;28;94569;-66
2023/06/27 14:21:46;;;;;;;;;;;24.90;46.80;;;;;;10329058;28;93604;-61
2023/06/27 14:26:48;;;;;;;;;;;25.00;47.10;;;;;;10328495;28;92806;-66
2023/06/27 14:31:50;;;;;;;;;;;24.90;47.10;;;;;;10328363;28;93486;-66
2023/06/27 14:36:52;;;;;;;;;;;24.90;47.00;;;;;;10328046;28;95089;-66
2023/06/27 14:41:53;;;;;;;;;;;24.90;47.00;;;;;;10325986;28;95953;-66
2023/06/27 14:46:55;;;;;;;;;;;24.90;47.10;;;;;;10326873;28;94506;-66
2023/06/27 14:51:57;;;;;;;;;;;24.90;47.10;;;;;;10309184;28;93526;-65
2023/06/27 14:56:59;;;;;;;;;;;24.90;47.10;;;;;;10328308;28;94461;-66
2023/06/27 15:02:00;;;;;;;;;;;24.90;47.00;;;;;;10327571;28;94488;-66
2023/06/27 15:07:02;;;;;;;;;;;24.90;47.00;;;;;;10327025;28;94433;-66
2023/06/27 15:12:04;;;;;;;;;;;24.90;46.90;;;;;;10327002;28;93520;-66
2023/06/27 15:17:06;;;;;;;;;;;24.90;46.90;;;;;;10327400;28;93977;-66
2023/06/27 15:22:07;;;;;;;;;;;24.90;46.70;;;;;;10327590;28;94543;-66
2023/06/27 15:27:09;;;;;;;;;;;25.00;46.90;;;;;;10326725;28;93506;-66
2023/06/27 15:32:11;;;;;;;;;;;25.00;46.80;;;;;;10306813;28;96902;-66
2023/06/27 15:37:12;;;;;;;;;;;24.90;46.80;;;;;;10326519;28;94431;-66
2023/06/27 15:42:15;;;;;;;;;;;24.90;46.60;;;;;;10326722;28;94255;-66
2023/06/27 15:47:16;;;;;;;;;;;25.00;46.70;;;;;;10307915;28;94745;-66
2023/06/27 15:52:18;;;;;;;;;;;25.00;46.40;;;;;;10326818;28;94763;-66
2023/06/27 15:57:20;;;;;;;;;;;25.00;46.60;;;;;;10310089;28;93928;-66
2023/06/27 16:02:23;;;;;;;;;;;25.00;46.50;;;;;;10333772;28;94673;-66
2023/06/27 16:07:25;;;;;;;;;;;25.00;46.60;;;;;;10334155;28;92016;-66
2023/06/27 16:12:26;;;;;;;;;;;25.00;46.40;;;;;;10332438;28;93967;-66
2023/06/27 16:17:28;;;;;;;;;;;25.00;46.30;;;;;;10332145;28;93668;-66
2023/06/27 16:22:30;;;;;;;;;;;25.00;46.20;;;;;;10329183;28;96927;-65
2023/06/27 16:27:32;;;;;;;;;;;25.00;46.40;;;;;;10314848;28;94792;-65
2023/06/27 16:32:35;;;;;;;;;;;24.90;46.40;;;;;;10332010;28;94572;-66
2023/06/27 16:37:37;;;;;;;;;;;24.90;46.50;;;;;;10331979;28;94763;-66
2023/06/27 16:42:38;;;;;;;;;;;24.90;46.60;;;;;;10313639;28;94441;-66
2023/06/27 16:47:40;;;;;;;;;;;24.90;46.70;;;;;;10330537;28;92578;-66
2023/06/27 16:52:42;;;;;;;;;;;24.80;46.70;;;;;;10331306;28;94418;-66
2023/06/27 16:57:44;;;;;;;;;;;24.80;46.60;;;;;;10332310;28;93889;-66
2023/06/27 17:02:47;;;;;;;;;;;24.80;46.70;;;;;;10313137;28;93959;-66
2023/06/27 17:07:50;;;;;;;;;;;24.80;46.60;;;;;;10329065;28;93799;-65
2023/06/27 17:12:51;;;;;;;;;;;24.80;46.70;;;;;;10328461;28;95949;-66
2023/06/27 17:17:53;;;;;;;;;;;24.80;46.60;;;;;;10331766;28;94166;-66
2023/06/27 17:22:55;;;;;;;;;;;24.80;46.70;;;;;;10314521;28;93615;-66
2023/06/27 17:27:58;;;;;;;;;;;24.70;46.60;;;;;;10330376;28;94490;-66
2023/06/27 17:33:00;;;;;;;;;;;24.70;46.70;;;;;;10329761;28;94615;-66
2023/06/27 17:38:02;;;;;;;;;;;24.70;46.60;;;;;;10331014;28;94401;-66
2023/06/27 17:43:03;;;;;;;;;;;24.70;46.70;;;;;;10329975;28;94253;-65
2023/06/27 17:48:05;;;;;;;;;;;24.70;46.70;;;;;;10330030;28;92840;-65
2023/06/27 17:53:07;;;;;;;;;;;24.70;46.70;;;;;;10312683;28;92708;-66
2023/06/27 17:58:09;;;;;;;;;;;24.70;46.80;;;;;;10329507;28;93685;-66
2023/06/27 18:03:11;;;;;;;;;;;24.60;46.80;;;;;;10326512;28;97403;-66
2023/06/27 18:08:13;;;;;;;;;;;24.60;46.90;;;;;;10329166;28;94132;-66
2023/06/27 18:13:15;;;;;;;;;;;24.60;47.00;;;;;;10328924;28;93747;-66
2023/06/27 18:18:17;;;;;;;;;;;24.60;46.90;;;;;;10328843;28;94713;-66
2023/06/27 18:23:19;;;;;;;;;;;24.60;47.00;;;;;;10329372;28;93447;-67
2023/06/27 18:28:21;;;;;;;;;;;24.60;47.10;;;;;;10328667;28;94609;-67
2023/06/27 18:33:23;;;;;;;;;;;24.60;46.90;;;;;;10328292;28;94198;-65
2023/06/27 18:38:27;;;;;;;;;;;24.60;46.90;;;;;;10328809;28;94062;-66
2023/06/27 18:43:28;;;;;;;;;;;24.60;46.90;;;;;;10310475;28;94420;-66
2023/06/27 18:48:30;;;;;;;;;;;24.60;46.90;;;;;;10326919;28;94665;-67
2023/06/27 18:53:32;;;;;;;;;;;24.60;47.00;;;;;;10308042;28;96903;-66
2023/06/27 18:58:34;;;;;;;;;;;24.60;46.90;;;;;;10326950;28;93557;-66
2023/06/27 19:03:37;;;;;;;;;;;24.70;47.10;;;;;;10326946;28;94389;-66
2023/06/27 19:08:38;;;;;;;;;;;24.60;47.10;;;;;;10328308;28;94663;-66
2023/06/27 19:13:40;;;;;;;;;;;24.70;47.00;;;;;;10326843;28;93527;-66
2023/06/27 19:18:42;;;;;;;;;;;24.60;47.10;;;;;;10310352;28;94520;-66
2023/06/27 19:23:44;;;;;;;;;;;24.60;47.10;;;;;;10326257;28;93611;-66
2023/06/27 19:28:46;;;;;;;;;;;24.60;47.10;;;;;;10328704;28;93743;-67
2023/06/27 19:33:52;;;;;;;;;;;24.60;47.10;;;;;;10330146;28;93596;-66
2023/06/27 19:38:54;;;;;;;;;;;24.70;47.10;;;;;;10335038;28;94429;-66
2023/06/27 19:43:56;;;;;;;;;;;24.60;47.10;;;;;;10329988;28;96005;-66
2023/06/27 19:48:59;;;;;;;;;;;24.70;47.20;;;;;;10332422;28;93654;-66
2023/06/27 19:54:00;;;;;;;;;;;24.60;47.10;;;;;;10315019;28;93634;-66
2023/06/27 19:59:02;;;;;;;;;;;24.60;47.10;;;;;;10333370;28;94472;-66
2023/06/27 20:04:04;;;;;;;;;;;24.60;47.20;;;;;;10333073;28;94766;-66
2023/06/27 20:09:07;;;;;;;;;;;24.60;47.20;;;;;;10333023;28;93216;-66
2023/06/27 20:14:09;;;;;;;;;;;24.60;47.20;;;;;;10315155;28;94548;-66
2023/06/27 20:19:11;;;;;;;;;;;24.60;47.30;;;;;;10333867;28;92916;-66
2023/06/27 20:24:14;;;;;;;;;;;24.60;47.30;;;;;;10314329;28;94248;-66
2023/06/27 20:29:15;;;;;;;;;;;24.60;47.30;;;;;;10332097;28;92959;-67
2023/06/27 20:34:17;;;;;;;;;;;24.60;47.30;;;;;;10329908;28;96861;-67
2023/06/27 20:39:20;;;;;;;;;;;24.60;47.40;;;;;;10331881;28;95623;-67
2023/06/27 20:44:21;;;;;;;;;;;24.60;47.40;;;;;;10332963;28;94511;-67
2023/06/27 20:49:23;;;;;;;;;;;24.60;47.40;;;;;;10331174;28;94582;-66
2023/06/27 20:54:25;;;;;;;;;;;24.60;47.50;;;;;;10330920;28;93616;-66
2023/06/27 20:59:27;;;;;;;;;;;24.60;47.70;;;;;;10313675;28;94517;-66
2023/06/27 21:04:28;;;;;;;;;;;24.60;47.80;;;;;;10331278;28;93702;-66
2023/06/27 21:09:30;;;;;;;;;;;24.50;47.80;;;;;;10330775;28;92878;-66
2023/06/27 21:14:31;;;;;;;;;;;24.50;48.10;;;;;;10329867;28;93856;-66
2023/06/27 21:19:33;;;;;;;;;;;24.50;48.20;;;;;;10313017;28;94772;-66
2023/06/27 21:24:35;;;;;;;;;;;24.50;48.30;;;;;;10326989;28;96526;-66
2023/06/27 21:29:36;;;;;;;;;;;24.50;48.40;;;;;;10329863;28;94431;-67
2023/06/27 21:34:38;;;;;;;;;;;24.50;48.50;;;;;;10330135;28;94784;-67
2023/06/27 21:39:40;;;;;;;;;;;24.50;48.80;;;;;;10311623;28;93764;-66
2023/06/27 21:44:42;;;;;;;;;;;24.50;48.80;;;;;;10329749;28;94606;-67
2023/06/27 21:49:43;;;;;;;;;;;24.50;49.00;;;;;;10310318;28;94511;-66
2023/06/27 21:54:45;;;;;;;;;;;24.50;49.00;;;;;;10326287;28;94197;-66
2023/06/27 21:59:48;;;;;;;;;;;24.50;49.10;;;;;;10310048;28;92830;-67
2023/06/27 22:04:50;;;;;;;;;;;24.50;49.20;;;;;;10326933;28;94434;-67
2023/06/27 22:09:52;;;;;;;;;;;24.50;49.30;;;;;;10326390;28;94752;-68
2023/06/27 22:14:54;;;;;;;;;;;24.50;49.30;;;;;;10323682;28;96878;-66
2023/06/27 22:19:56;;;;;;;;;;;24.50;49.40;;;;;;10324730;28;94247;-67
2023/06/27 22:24:58;;;;;;;;;;;24.50;49.30;;;;;;10326406;28;94418;-68
2023/06/27 22:30:00;;;;;;;;;;;24.50;49.40;;;;;;10326229;28;94145;-67
2023/06/27 22:35:02;;;;;;;;;;;24.50;49.40;;;;;;10326150;28;94313;-67
2023/06/27 22:40:04;;;;;;;;;;;24.50;49.50;;;;;;10327208;28;94629;-67
2023/06/27 22:45:06;;;;;;;;;;;24.50;49.40;;;;;;10324565;28;94436;-62
2023/06/27 22:50:08;;;;;;;;;;;24.50;49.40;;;;;;10241209;28;1935262;-62
2023/06/27 22:55:09;;;;;;;;;;;24.50;49.50;;;;;;10328484;28;94688;-68
2023/06/27 23:00:11;;;;;;;;;;;24.50;49.30;;;;;;10326878;28;93529;-67
2023/06/27 23:05:13;;;;;;;;;;;24.50;49.40;;;;;;10326153;28;96638;-67
2023/06/27 23:10:15;;;;;;;;;;;24.50;49.30;;;;;;10333664;28;93642;-67
2023/06/27 23:15:17;;;;;;;;;;;24.50;49.30;;;;;;10333361;28;93666;-67
2023/06/27 23:20:19;;;;;;;;;;;24.50;49.30;;;;;;10334062;28;94289;-66
2023/06/27 23:25:21;;;;;;;;;;;24.50;49.30;;;;;;10316265;28;93648;-67
2023/06/27 23:30:28;;;;;;;;;;;24.50;49.20;;;;;;10334770;28;93564;-66
2023/06/27 23:35:30;;;;;;;;;;;24.50;49.10;;;;;;10333881;28;93383;-67
2023/06/27 23:40:32;;;;;;;;;;;24.60;49.20;;;;;;10334537;28;92901;-68
2023/06/27 23:45:37;;;;;;;;;;;24.60;49.20;;;;;;10333209;28;93646;-68
2023/06/27 23:50:39;;;;;;;;;;;24.50;49.10;;;;;;10333695;28;93498;-66
2023/06/27 23:55:41;;;;;;;;;;;24.50;49.10;;;;;;10330591;28;96922;-68
